Time;durP1;ratioP1;P1;durP2;ratioP2;P2;SDS_P1;SDS_P2;PMS_P1;PMS_P2;Temp;Humidity;BMP_temperature;BMP_pressure;BME280_temperature;BME280_humidity;BME280_pressure;Samples;Min_cycle;Max_cycle;Signal;HPM_P1;HPM_P2
2023/05/13 00:01:43;;;;;;;;;;;13.00;84.30;;;;;;5029528;28;19914;-87
2023/05/13 00:04:08;;;;;;;;;;;13.00;84.50;;;;;;5028359;28;19924;-87
2023/05/13 00:06:34;;;;;;;;;;;13.00;84.20;;;;;;5027101;28;19962;-88
2023/05/13 00:09:02;;;;;;;;;;;12.80;84.20;;;;;;5026884;28;19987;-87
2023/05/13 00:11:28;;;;;;;;;;;12.80;84.20;;;;;;5016601;28;19913;-87
2023/05/13 00:13:53;;;;;;;;;;;12.70;84.40;;;;;;5039018;28;19928;-88
2023/05/13 00:16:21;;;;;;;;;;;12.80;84.60;;;;;;5033130;28;20366;-87
2023/05/13 00:18:46;;;;;;;;;;;12.80;84.60;;;;;;5015980;28;19920;-88
2023/05/13 00:21:12;;;;;;;;;;;12.80;84.80;;;;;;5019857;28;19914;-88
2023/05/13 00:23:37;;;;;;;;;;;12.80;85.00;;;;;;5025672;28;20003;-87
2023/05/13 00:26:03;;;;;;;;;;;12.80;84.60;;;;;;5015005;28;20291;-87
2023/05/13 00:28:28;;;;;;;;;;;12.80;84.80;;;;;;5011704;28;19921;-87
2023/05/13 00:30:54;;;;;;;;;;;12.70;85.10;;;;;;5023876;28;19914;-87
2023/05/13 00:33:19;;;;;;;;;;;12.70;85.20;;;;;;5044180;28;19920;-87
2023/05/13 00:35:45;;;;;;;;;;;12.80;85.00;;;;;;5040252;28;19914;-87
2023/05/13 00:38:10;;;;;;;;;;;12.80;84.80;;;;;;5046850;28;19937;-87
2023/05/13 00:40:38;;;;;;;;;;;12.80;84.40;;;;;;5042794;28;19921;-87
2023/05/13 00:43:04;;;;;;;;;;;12.80;84.40;;;;;;5028572;28;19909;-87
2023/05/13 00:45:30;;;;;;;;;;;12.70;84.20;;;;;;5035122;28;19928;-88
2023/05/13 00:47:55;;;;;;;;;;;12.70;84.40;;;;;;5026512;28;20012;-88
2023/05/13 00:50:21;;;;;;;;;;;12.60;84.90;;;;;;5029325;28;19913;-88
2023/05/13 00:52:48;;;;;;;;;;;12.60;84.30;;;;;;5042658;28;19913;-88
2023/05/13 00:55:13;;;;;;;;;;;12.60;84.50;;;;;;5028219;28;20043;-88
2023/05/13 00:57:39;;;;;;;;;;;12.60;84.20;;;;;;5032104;28;20008;-88
2023/05/13 01:00:05;;;;;;;;;;;12.60;84.00;;;;;;5031531;28;19917;-88
2023/05/13 01:02:39;;;;;;;;;;;12.50;83.90;;;;;;5023892;28;19955;-88
2023/05/13 01:05:14;;;;;;;;;;;12.50;84.10;;;;;;5022741;28;19928;-88
2023/05/13 01:07:46;;;;;;;;;;;12.50;84.50;;;;;;5024242;28;19935;-88
2023/05/13 01:10:18;;;;;;;;;;;12.50;84.30;;;;;;5024163;28;19924;-88
2023/05/13 01:12:45;;;;;;;;;;;12.50;84.20;;;;;;5020602;28;19922;-87
2023/05/13 01:15:13;;;;;;;;;;;12.50;84.50;;;;;;5023665;28;20295;-87
2023/05/13 01:17:53;;;;;;;;;;;12.50;83.60;;;;;;5020575;28;19913;-88
2023/05/13 01:20:20;;;;;;;;;;;12.30;83.50;;;;;;5029739;28;20063;-88
2023/05/13 01:22:46;;;;;;;;;;;12.30;83.20;;;;;;5023380;28;19948;-88
2023/05/13 01:25:11;;;;;;;;;;;12.20;83.80;;;;;;5023930;28;20048;-87
2023/05/13 01:27:37;;;;;;;;;;;12.20;83.70;;;;;;5035940;28;19913;-88
2023/05/13 01:30:02;;;;;;;;;;;12.10;84.20;;;;;;5034885;28;19917;-88
2023/05/13 01:32:28;;;;;;;;;;;12.10;84.60;;;;;;5030067;28;19917;-88
2023/05/13 01:34:54;;;;;;;;;;;12.10;84.40;;;;;;5025957;28;19913;-88
2023/05/13 01:37:19;;;;;;;;;;;12.00;84.60;;;;;;5028349;28;20279;-88
2023/05/13 01:39:45;;;;;;;;;;;12.10;84.80;;;;;;5026840;28;19914;-88
2023/05/13 01:42:11;;;;;;;;;;;12.10;85.00;;;;;;5018177;28;20417;-88
2023/05/13 01:44:36;;;;;;;;;;;12.10;85.10;;;;;;5029358;28;19917;-87
2023/05/13 01:47:02;;;;;;;;;;;12.20;84.80;;;;;;5024209;28;20011;-88
2023/05/13 01:49:27;;;;;;;;;;;12.10;84.90;;;;;;5035748;28;20270;-88
2023/05/13 01:51:52;;;;;;;;;;;12.10;84.90;;;;;;5020407;28;19913;-88
2023/05/13 01:54:18;;;;;;;;;;;12.10;84.30;;;;;;5027253;28;20039;-88
2023/05/13 01:56:43;;;;;;;;;;;12.00;84.40;;;;;;5033123;28;19957;-87
2023/05/13 01:59:09;;;;;;;;;;;11.90;84.20;;;;;;5033539;28;20400;-88
2023/05/13 02:01:35;;;;;;;;;;;11.80;84.20;;;;;;5032656;28;19916;-86
2023/05/13 02:04:01;;;;;;;;;;;11.70;84.80;;;;;;5032084;28;19917;-88
2023/05/13 02:06:27;;;;;;;;;;;11.70;84.80;;;;;;5037410;28;19904;-88
2023/05/13 02:08:52;;;;;;;;;;;11.70;84.90;;;;;;5057594;28;19905;-87
2023/05/13 02:11:18;;;;;;;;;;;11.70;85.00;;;;;;5023819;28;19960;-88
2023/05/13 02:13:44;;;;;;;;;;;11.60;85.40;;;;;;5034467;28;19994;-87
2023/05/13 02:16:09;;;;;;;;;;;11.70;85.10;;;;;;5018066;28;19919;-88
2023/05/13 02:18:35;;;;;;;;;;;11.70;85.20;;;;;;5033654;28;19995;-88
2023/05/13 02:21:01;;;;;;;;;;;11.70;85.10;;;;;;5018737;28;19969;-88
2023/05/13 02:23:26;;;;;;;;;;;11.70;85.10;;;;;;5034380;28;19913;-88
2023/05/13 02:25:52;;;;;;;;;;;11.60;84.90;;;;;;5031410;28;19921;-87
2023/05/13 02:28:17;;;;;;;;;;;11.50;85.40;;;;;;5030205;28;19913;-88
2023/05/13 02:30:43;;;;;;;;;;;11.60;85.30;;;;;;5014986;28;19910;-88
2023/05/13 02:33:08;;;;;;;;;;;11.60;85.60;;;;;;5031520;28;19917;-89
2023/05/13 02:35:34;;;;;;;;;;;11.50;86.10;;;;;;5039448;28;19913;-87
2023/05/13 02:38:00;;;;;;;;;;;11.50;85.70;;;;;;5032422;28;19960;-88
2023/05/13 02:40:25;;;;;;;;;;;11.50;85.40;;;;;;5027844;28;19922;-88
2023/05/13 02:42:50;;;;;;;;;;;11.50;85.20;;;;;;5028441;28;20353;-88
2023/05/13 02:45:16;;;;;;;;;;;11.40;85.40;;;;;;5033049;28;19979;-88
2023/05/13 02:47:42;;;;;;;;;;;11.40;85.80;;;;;;5030388;28;19963;-88
2023/05/13 02:50:08;;;;;;;;;;;11.50;86.00;;;;;;5024469;28;19917;-88
2023/05/13 02:52:35;;;;;;;;;;;11.50;85.60;;;;;;5023409;28;20375;-88
2023/05/13 02:55:01;;;;;;;;;;;11.50;85.80;;;;;;5032140;28;19963;-88
2023/05/13 02:57:26;;;;;;;;;;;11.50;86.00;;;;;;5030858;28;19929;-88
2023/05/13 02:59:52;;;;;;;;;;;11.60;86.00;;;;;;5017887;28;19921;-88
2023/05/13 03:02:17;;;;;;;;;;;11.70;85.60;;;;;;5029225;28;19936;-88
2023/05/13 03:04:43;;;;;;;;;;;11.60;85.50;;;;;;5015898;28;19917;-88
2023/05/13 03:07:08;;;;;;;;;;;11.60;85.20;;;;;;5034793;28;19973;-87
2023/05/13 03:09:34;;;;;;;;;;;11.60;85.00;;;;;;5030805;28;20295;-88
2023/05/13 03:11:59;;;;;;;;;;;11.60;84.70;;;;;;5023684;28;19917;-87
2023/05/13 03:14:25;;;;;;;;;;;11.60;85.10;;;;;;5027985;28;19921;-87
2023/05/13 03:16:50;;;;;;;;;;;11.50;84.90;;;;;;5033059;28;20255;-88
2023/05/13 03:19:16;;;;;;;;;;;11.30;84.60;;;;;;5027088;28;20013;-87
2023/05/13 03:21:41;;;;;;;;;;;11.30;84.80;;;;;;5027953;28;19909;-88
2023/05/13 03:24:07;;;;;;;;;;;11.10;84.70;;;;;;5045257;28;19917;-87
2023/05/13 03:26:32;;;;;;;;;;;11.20;85.10;;;;;;5032658;28;20360;-88
2023/05/13 03:28:58;;;;;;;;;;;11.20;85.20;;;;;;5024321;28;20008;-88
2023/05/13 03:31:23;;;;;;;;;;;11.20;85.30;;;;;;5032128;28;19964;-88
2023/05/13 03:33:49;;;;;;;;;;;11.30;85.00;;;;;;5032267;28;19917;-87
2023/05/13 03:36:14;;;;;;;;;;;11.20;85.30;;;;;;5019755;28;19926;-88
2023/05/13 03:38:40;;;;;;;;;;;11.20;85.40;;;;;;5041405;28;19913;-87
2023/05/13 03:41:05;;;;;;;;;;;11.20;85.20;;;;;;5021296;28;20343;-87
2023/05/13 03:43:31;;;;;;;;;;;11.10;84.90;;;;;;5021173;28;20291;-87
2023/05/13 03:45:56;;;;;;;;;;;11.00;84.90;;;;;;5033762;28;19917;-87
2023/05/13 03:48:22;;;;;;;;;;;10.90;84.80;;;;;;5023189;28;19924;-87
2023/05/13 03:50:47;;;;;;;;;;;10.80;85.70;;;;;;5032014;28;19924;-87
2023/05/13 03:53:13;;;;;;;;;;;10.90;85.70;;;;;;5029739;28;19948;-88
2023/05/13 03:55:38;;;;;;;;;;;10.90;85.70;;;;;;5030274;28;19917;-87
2023/05/13 03:58:12;;;;;;;;;;;10.90;85.30;;;;;;5026815;28;20318;-87
2023/05/13 04:00:38;;;;;;;;;;;10.90;85.70;;;;;;5024520;28;20299;-88
2023/05/13 04:03:03;;;;;;;;;;;11.00;85.70;;;;;;5017212;28;19917;-87
2023/05/13 04:05:29;;;;;;;;;;;11.00;85.70;;;;;;5021986;28;20413;-87
2023/05/13 04:07:54;;;;;;;;;;;11.00;85.20;;;;;;5031399;28;19913;-87
2023/05/13 04:10:20;;;;;;;;;;;10.90;85.30;;;;;;5021036;28;19921;-88
2023/05/13 04:12:45;;;;;;;;;;;10.90;85.10;;;;;;5029336;28;19981;-87
2023/05/13 04:15:10;;;;;;;;;;;10.90;85.40;;;;;;5022468;28;19928;-86
2023/05/13 04:17:36;;;;;;;;;;;10.90;85.80;;;;;;5031439;28;19913;-87
2023/05/13 04:20:01;;;;;;;;;;;10.90;85.60;;;;;;5029310;28;19913;-87
2023/05/13 04:22:27;;;;;;;;;;;10.90;85.60;;;;;;5019874;28;19913;-87
2023/05/13 04:24:55;;;;;;;;;;;10.80;85.70;;;;;;5021442;28;20067;-86
2023/05/13 04:27:21;;;;;;;;;;;10.90;86.10;;;;;;5048833;28;19905;-87
2023/05/13 04:29:47;;;;;;;;;;;10.90;86.20;;;;;;5040017;28;19959;-87
2023/05/13 04:32:14;;;;;;;;;;;11.00;86.40;;;;;;5022432;28;20379;-88
2023/05/13 04:34:40;;;;;;;;;;;11.00;86.60;;;;;;5017448;28;19956;-88
2023/05/13 04:37:05;;;;;;;;;;;11.10;86.50;;;;;;5017810;28;20299;-87
2023/05/13 04:39:31;;;;;;;;;;;11.10;86.60;;;;;;5013098;28;19914;-88
2023/05/13 04:41:56;;;;;;;;;;;11.20;86.40;;;;;;5026261;28;19913;-87
2023/05/13 04:44:22;;;;;;;;;;;11.30;86.30;;;;;;5023140;28;19913;-87
2023/05/13 04:46:47;;;;;;;;;;;11.40;85.70;;;;;;5028511;28;19973;-87
2023/05/13 04:49:13;;;;;;;;;;;11.30;85.10;;;;;;5022591;28;19937;-87
2023/05/13 04:51:38;;;;;;;;;;;11.30;85.60;;;;;;5025173;28;19913;-87
2023/05/13 04:54:03;;;;;;;;;;;11.40;85.20;;;;;;5029432;28;19967;-88
2023/05/13 04:56:29;;;;;;;;;;;11.50;85.20;;;;;;5025383;28;19917;-87
2023/05/13 04:58:54;;;;;;;;;;;11.50;85.20;;;;;;5053278;22;19979;-79
2023/05/13 05:01:20;;;;;;;;;;;11.60;85.00;;;;;;5033383;28;19921;-80
2023/05/13 05:03:46;;;;;;;;;;;11.60;85.40;;;;;;5023354;28;19906;-83
2023/05/13 05:06:11;;;;;;;;;;;11.80;85.50;;;;;;5021712;28;19964;-84
2023/05/13 05:08:37;;;;;;;;;;;11.90;85.20;;;;;;5025734;28;19913;-84
2023/05/13 05:11:02;;;;;;;;;;;12.10;84.80;;;;;;5025563;28;20522;-84
2023/05/13 05:13:28;;;;;;;;;;;12.20;84.70;;;;;;5013610;28;19914;-84
2023/05/13 05:15:53;;;;;;;;;;;12.30;84.40;;;;;;5018878;28;19959;-84
2023/05/13 05:18:19;;;;;;;;;;;12.50;84.50;;;;;;5045721;28;19948;-84
2023/05/13 05:20:45;;;;;;;;;;;12.60;84.50;;;;;;5030073;28;19956;-84
2023/05/13 05:23:10;;;;;;;;;;;12.70;83.20;;;;;;5023555;28;19956;-84
2023/05/13 05:25:36;;;;;;;;;;;12.60;83.30;;;;;;5030581;28;19945;-84
2023/05/13 05:28:03;;;;;;;;;;;12.70;83.70;;;;;;5021380;28;19924;-84
2023/05/13 05:30:31;;;;;;;;;;;12.50;83.20;;;;;;5021128;28;19909;-85
2023/05/13 05:32:57;;;;;;;;;;;12.50;83.30;;;;;;5027409;28;19920;-86
2023/05/13 05:35:22;;;;;;;;;;;12.30;83.70;;;;;;5011118;28;20296;-85
2023/05/13 05:37:48;;;;;;;;;;;12.20;83.90;;;;;;5026076;28;20261;-85
2023/05/13 05:40:13;;;;;;;;;;;12.30;83.90;;;;;;5026464;28;19914;-85
2023/05/13 05:42:39;;;;;;;;;;;12.60;84.00;;;;;;5022259;28;20280;-86
2023/05/13 05:45:05;;;;;;;;;;;13.00;84.10;;;;;;5021738;28;20007;-85
2023/05/13 05:47:30;;;;;;;;;;;13.50;83.30;;;;;;5026434;28;19991;-85
2023/05/13 05:49:56;;;;;;;;;;;13.80;82.20;;;;;;5014788;28;19953;-86
2023/05/13 05:52:21;;;;;;;;;;;14.20;80.00;;;;;;5026330;28;20016;-85
2023/05/13 05:54:47;;;;;;;;;;;14.50;78.50;;;;;;5029421;28;20367;-86
2023/05/13 05:57:12;;;;;;;;;;;15.10;74.60;;;;;;5018641;28;19909;-86
2023/05/13 05:59:38;;;;;;;;;;;15.10;74.00;;;;;;5025890;28;19960;-85
2023/05/13 06:02:03;;;;;;;;;;;14.60;74.80;;;;;;5025233;28;20105;-86
2023/05/13 06:04:29;;;;;;;;;;;14.20;75.90;;;;;;5028582;28;20031;-87
2023/05/13 06:06:54;;;;;;;;;;;14.10;76.40;;;;;;5030729;28;21804;-85
2023/05/13 06:09:20;;;;;;;;;;;13.80;78.00;;;;;;5025406;28;19917;-85
2023/05/13 06:11:45;;;;;;;;;;;13.60;78.90;;;;;;5027743;28;19913;-85
2023/05/13 06:14:11;;;;;;;;;;;13.40;80.00;;;;;;5027812;28;19921;-85
2023/05/13 06:16:36;;;;;;;;;;;13.30;81.10;;;;;;5036958;28;19917;-85
2023/05/13 06:19:02;;;;;;;;;;;13.10;82.10;;;;;;5032667;28;19914;-85
2023/05/13 06:21:27;;;;;;;;;;;13.10;82.80;;;;;;5021016;28;20422;-85
2023/05/13 06:23:52;;;;;;;;;;;13.00;83.70;;;;;;5027176;28;19967;-84
2023/05/13 06:26:18;;;;;;;;;;;13.10;83.30;;;;;;5031094;28;19923;-86
2023/05/13 06:28:44;;;;;;;;;;;13.20;82.20;;;;;;5033100;28;19920;-84
2023/05/13 06:31:09;;;;;;;;;;;13.10;82.40;;;;;;5021899;28;20016;-85
2023/05/13 06:33:35;;;;;;;;;;;13.10;83.20;;;;;;5025140;28;19921;-85
2023/05/13 06:36:00;;;;;;;;;;;13.20;83.40;;;;;;5017770;28;19914;-85
2023/05/13 06:38:26;;;;;;;;;;;13.20;84.00;;;;;;5032378;28;19929;-85
2023/05/13 06:40:51;;;;;;;;;;;13.50;83.90;;;;;;5024935;28;19920;-85
2023/05/13 06:43:17;;;;;;;;;;;13.60;82.60;;;;;;5023230;28;19913;-85
2023/05/13 06:45:42;;;;;;;;;;;13.80;82.30;;;;;;5027622;28;20289;-86
2023/05/13 06:48:08;;;;;;;;;;;13.70;80.90;;;;;;5027028;28;20007;-84
2023/05/13 06:50:33;;;;;;;;;;;13.70;81.10;;;;;;5027625;28;20318;-83
2023/05/13 06:52:59;;;;;;;;;;;13.60;81.10;;;;;;5027235;28;19944;-83
2023/05/13 06:55:25;;;;;;;;;;;13.60;81.10;;;;;;5017875;28;19918;-84
2023/05/13 06:57:50;;;;;;;;;;;13.70;81.00;;;;;;5018524;28;19921;-87
2023/05/13 07:00:16;;;;;;;;;;;13.80;80.70;;;;;;5025852;28;19920;-84
2023/05/13 07:02:42;;;;;;;;;;;13.80;81.10;;;;;;5033524;28;19913;-85
2023/05/13 07:05:08;;;;;;;;;;;14.00;79.30;;;;;;5026398;28;20307;-86
2023/05/13 07:07:34;;;;;;;;;;;14.10;79.30;;;;;;5027356;28;20430;-84
2023/05/13 07:10:00;;;;;;;;;;;14.30;78.30;;;;;;5031929;28;19949;-86
2023/05/13 07:12:25;;;;;;;;;;;14.20;78.00;;;;;;5024876;28;19949;-85
2023/05/13 07:14:51;;;;;;;;;;;14.10;77.20;;;;;;5026108;28;19948;-86
2023/05/13 07:17:16;;;;;;;;;;;14.10;76.90;;;;;;5030147;28;20358;-86
2023/05/13 07:19:42;;;;;;;;;;;14.20;76.90;;;;;;5026100;28;19982;-84
2023/05/13 07:22:07;;;;;;;;;;;14.50;72.50;;;;;;5023210;28;20036;-87
2023/05/13 07:24:33;;;;;;;;;;;14.50;73.30;;;;;;5027447;28;19925;-87
2023/05/13 07:27:00;;;;;;;;;;;14.50;74.30;;;;;;5031029;28;19971;-85
2023/05/13 07:29:25;;;;;;;;;;;14.50;75.10;;;;;;5022632;28;19921;-85
2023/05/13 07:31:51;;;;;;;;;;;14.60;77.50;;;;;;5028633;28;20288;-83
2023/05/13 07:34:16;;;;;;;;;;;14.80;76.50;;;;;;5025171;28;20364;-85
2023/05/13 07:36:42;;;;;;;;;;;15.00;78.10;;;;;;5021590;28;19987;-84
2023/05/13 07:39:08;;;;;;;;;;;15.10;76.60;;;;;;5031188;28;19917;-83
2023/05/13 07:41:35;;;;;;;;;;;15.10;76.10;;;;;;5029890;28;19917;-85
2023/05/13 07:44:00;;;;;;;;;;;15.30;75.90;;;;;;5028976;28;19921;-85
2023/05/13 07:46:26;;;;;;;;;;;15.40;75.00;;;;;;5011216;28;19928;-86
2023/05/13 07:48:55;;;;;;;;;;;15.40;75.90;;;;;;5029913;28;19963;-87
2023/05/13 07:51:20;;;;;;;;;;;15.30;74.90;;;;;;5018652;28;19919;-86
2023/05/13 07:53:46;;;;;;;;;;;15.30;75.30;;;;;;5023097;28;19912;-86
2023/05/13 07:56:12;;;;;;;;;;;15.40;73.50;;;;;;5019850;28;20402;-86
2023/05/13 07:58:37;;;;;;;;;;;15.60;73.50;;;;;;5020229;28;19969;-85
2023/05/13 08:01:04;;;;;;;;;;;15.40;73.40;;;;;;5022368;28;19913;-85
2023/05/13 08:03:29;;;;;;;;;;;15.60;73.80;;;;;;5024103;28;20381;-85
2023/05/13 08:05:55;;;;;;;;;;;15.60;73.00;;;;;;5021470;28;19960;-85
2023/05/13 08:08:21;;;;;;;;;;;15.60;74.30;;;;;;5026554;28;19956;-85
2023/05/13 08:10:46;;;;;;;;;;;15.80;73.20;;;;;;5024502;28;19967;-83
2023/05/13 08:13:12;;;;;;;;;;;15.80;72.50;;;;;;5020564;28;19913;-83
2023/05/13 08:15:37;;;;;;;;;;;15.90;71.80;;;;;;5021883;28;19920;-85
2023/05/13 08:18:03;;;;;;;;;;;16.00;72.30;;;;;;5032320;28;19962;-85
2023/05/13 08:20:28;;;;;;;;;;;16.10;68.10;;;;;;5049826;28;19901;-86
2023/05/13 08:22:55;;;;;;;;;;;16.40;67.40;;;;;;5045026;28;19905;-85
2023/05/13 08:25:20;;;;;;;;;;;16.40;67.10;;;;;;5041991;28;19947;-85
2023/05/13 08:27:46;;;;;;;;;;;16.40;69.00;;;;;;5047228;28;19917;-85
2023/05/13 08:30:12;;;;;;;;;;;16.50;66.40;;;;;;5049866;28;19905;-85
2023/05/13 08:32:38;;;;;;;;;;;16.60;66.60;;;;;;5037990;28;19913;-85
2023/05/13 08:35:03;;;;;;;;;;;16.60;67.40;;;;;;5023369;28;19914;-85
2023/05/13 08:37:29;;;;;;;;;;;16.60;66.10;;;;;;5023051;28;20269;-84
2023/05/13 08:39:55;;;;;;;;;;;16.60;66.10;;;;;;5022872;28;19918;-85
2023/05/13 08:42:22;;;;;;;;;;;17.00;65.70;;;;;;5020114;28;20210;-88
2023/05/13 08:44:47;;;;;;;;;;;17.10;67.20;;;;;;5024567;28;19929;-86
2023/05/13 08:47:22;;;;;;;;;;;17.10;67.90;;;;;;5027610;28;19919;-86
2023/05/13 08:49:49;;;;;;;;;;;17.20;69.00;;;;;;5026433;28;19924;-84
2023/05/13 08:52:17;;;;;;;;;;;17.30;64.50;;;;;;5023525;28;21263;-85
2023/05/13 08:54:44;;;;;;;;;;;17.30;66.50;;;;;;5026807;28;19921;-84
2023/05/13 08:57:10;;;;;;;;;;;17.50;67.60;;;;;;5027639;28;19913;-86
2023/05/13 08:59:35;;;;;;;;;;;17.60;65.60;;;;;;5023259;28;20008;-86
2023/05/13 09:02:02;;;;;;;;;;;17.60;63.50;;;;;;5024675;28;19913;-85
2023/05/13 09:04:28;;;;;;;;;;;17.70;63.30;;;;;;5024635;28;19921;-84
2023/05/13 09:06:54;;;;;;;;;;;17.80;65.20;;;;;;5021433;28;19960;-84
2023/05/13 09:09:19;;;;;;;;;;;17.80;63.00;;;;;;5043293;28;19917;-85
2023/05/13 09:11:48;;;;;;;;;;;17.80;64.00;;;;;;5024876;28;19917;-83
2023/05/13 09:14:17;;;;;;;;;;;17.80;63.10;;;;;;5016848;28;20041;-83
2023/05/13 09:16:42;;;;;;;;;;;17.90;61.20;;;;;;5027469;28;20004;-88
2023/05/13 09:19:10;;;;;;;;;;;18.00;64.10;;;;;;5017364;28;20004;-83
2023/05/13 09:21:36;;;;;;;;;;;17.90;63.60;;;;;;5027180;28;20023;-85
2023/05/13 09:24:08;;;;;;;;;;;18.10;62.40;;;;;;5026271;28;19913;-86
2023/05/13 09:26:38;;;;;;;;;;;18.40;58.00;;;;;;5020683;28;19914;-88
2023/05/13 09:29:17;;;;;;;;;;;18.50;57.00;;;;;;5022290;28;19975;-86
2023/05/13 09:31:43;;;;;;;;;;;18.60;61.20;;;;;;5021663;28;19960;-84
2023/05/13 09:34:09;;;;;;;;;;;18.60;61.70;;;;;;5018368;28;19976;-85
2023/05/13 09:36:34;;;;;;;;;;;18.60;60.20;;;;;;5027903;28;20317;-86
2023/05/13 09:39:01;;;;;;;;;;;18.80;60.30;;;;;;5027692;28;20000;-86
2023/05/13 09:41:26;;;;;;;;;;;18.90;60.60;;;;;;5022307;28;20069;-87
2023/05/13 09:43:52;;;;;;;;;;;18.90;60.20;;;;;;5026656;28;20299;-86
2023/05/13 09:46:19;;;;;;;;;;;19.00;60.80;;;;;;5026505;28;19924;-86
2023/05/13 09:48:44;;;;;;;;;;;19.00;58.50;;;;;;5027744;28;20384;-84
2023/05/13 09:51:10;;;;;;;;;;;19.00;59.30;;;;;;5032059;28;19917;-84
2023/05/13 09:53:36;;;;;;;;;;;19.20;55.70;;;;;;5036561;28;19924;-84
2023/05/13 09:56:01;;;;;;;;;;;19.10;56.80;;;;;;5032882;28;20303;-85
2023/05/13 09:58:29;;;;;;;;;;;19.20;56.50;;;;;;5035434;28;19921;-85
2023/05/13 10:00:55;;;;;;;;;;;19.10;56.90;;;;;;5032307;28;19978;-84
2023/05/13 10:03:21;;;;;;;;;;;19.10;56.70;;;;;;5019571;28;19934;-83
2023/05/13 10:05:47;;;;;;;;;;;19.20;59.30;;;;;;5027373;28;19933;-84
2023/05/13 10:08:14;;;;;;;;;;;19.30;58.80;;;;;;5014203;28;19913;-82
2023/05/13 10:10:41;;;;;;;;;;;19.60;55.60;;;;;;5014153;28;20284;-84
2023/05/13 10:13:12;;;;;;;;;;;19.60;56.80;;;;;;5028979;28;19960;-84
2023/05/13 10:15:41;;;;;;;;;;;19.60;55.80;;;;;;5032750;28;19921;-81
2023/05/13 10:18:07;;;;;;;;;;;19.60;56.00;;;;;;5032919;28;19973;-84
2023/05/13 10:20:33;;;;;;;;;;;19.60;57.40;;;;;;5031074;28;19913;-83
2023/05/13 10:22:58;;;;;;;;;;;19.60;56.00;;;;;;5029531;28;19916;-84
2023/05/13 10:25:24;;;;;;;;;;;19.90;53.70;;;;;;5024505;28;19917;-85
2023/05/13 10:27:49;;;;;;;;;;;19.70;56.50;;;;;;5029158;28;19979;-89
2023/05/13 10:30:16;;;;;;;;;;;19.80;56.80;;;;;;5028125;28;19926;-86
2023/05/13 10:32:42;;;;;;;;;;;19.80;56.50;;;;;;5028569;28;19963;-89
2023/05/13 10:35:15;;;;;;;;;;;19.80;51.50;;;;;;5028597;28;19917;-89
2023/05/13 10:37:47;;;;;;;;;;;19.80;54.70;;;;;;5029080;28;19917;-86
2023/05/13 10:40:18;;;;;;;;;;;19.80;55.30;;;;;;5024279;28;19913;-84
2023/05/13 10:42:50;;;;;;;;;;;19.80;56.60;;;;;;5024830;28;19921;-85
2023/05/13 10:45:16;;;;;;;;;;;19.80;55.00;;;;;;5024977;28;20299;-81
2023/05/13 10:47:41;;;;;;;;;;;19.80;53.40;;;;;;5029601;28;19992;-82
2023/05/13 10:50:25;;;;;;;;;;;19.90;51.70;;;;;;5030094;28;20330;-82
2023/05/13 10:52:54;;;;;;;;;;;19.90;53.20;;;;;;5034455;28;19913;-82
2023/05/13 10:55:20;;;;;;;;;;;20.00;53.40;;;;;;5029032;28;19914;-83
2023/05/13 10:58:04;;;;;;;;;;;20.00;53.10;;;;;;5026898;28;19920;-86
2023/05/13 11:00:30;;;;;;;;;;;20.00;53.90;;;;;;5026229;28;19948;-85
2023/05/13 11:02:56;;;;;;;;;;;20.10;52.50;;;;;;5024929;28;20009;-87
2023/05/13 11:05:21;;;;;;;;;;;20.20;52.50;;;;;;5026281;28;19968;-83
2023/05/13 11:07:54;;;;;;;;;;;20.30;50.60;;;;;;5024614;28;19913;-87
2023/05/13 11:10:24;;;;;;;;;;;20.30;50.20;;;;;;5018672;28;20028;-85
2023/05/13 11:13:08;;;;;;;;;;;20.20;53.10;;;;;;5022758;28;19914;-86
2023/05/13 11:15:44;;;;;;;;;;;20.20;54.30;;;;;;5019606;28;19917;-86
2023/05/13 11:18:10;;;;;;;;;;;20.30;54.50;;;;;;5021429;28;19920;-86
2023/05/13 11:20:36;;;;;;;;;;;20.30;57.40;;;;;;5027744;28;20051;-86
2023/05/13 11:23:01;;;;;;;;;;;20.40;53.00;;;;;;5021379;28;19924;-84
2023/05/13 11:25:27;;;;;;;;;;;20.50;54.70;;;;;;5024671;28;19921;-86
2023/05/13 11:27:52;;;;;;;;;;;20.50;52.30;;;;;;5032768;28;19920;-85
2023/05/13 11:30:22;;;;;;;;;;;20.50;50.20;;;;;;5019607;28;19981;-86
2023/05/13 11:32:54;;;;;;;;;;;20.50;52.60;;;;;;5025399;28;19917;-89
2023/05/13 11:35:21;;;;;;;;;;;20.50;52.60;;;;;;5025393;28;19963;-88
2023/05/13 11:37:48;;;;;;;;;;;20.70;54.20;;;;;;5013816;28;19920;-84
2023/05/13 11:40:20;;;;;;;;;;;20.60;51.30;;;;;;5024319;28;19913;-87
2023/05/13 11:42:45;;;;;;;;;;;20.70;53.70;;;;;;5022807;28;19921;-87
2023/05/13 11:45:12;;;;;;;;;;;20.60;52.40;;;;;;5023210;28;20307;-84
2023/05/13 11:47:37;;;;;;;;;;;20.60;52.30;;;;;;5025667;28;19917;-88
2023/05/13 11:50:16;;;;;;;;;;;20.60;51.50;;;;;;5026575;28;20268;-85
2023/05/13 11:52:49;;;;;;;;;;;20.70;50.00;;;;;;5026221;28;19924;-89
2023/05/13 11:55:23;;;;;;;;;;;20.80;49.60;;;;;;5023459;28;19913;-89
2023/05/13 11:57:58;;;;;;;;;;;21.00;48.60;;;;;;5012265;28;20365;-90
2023/05/13 12:03:41;;;;;;;;;;;20.90;48.70;;;;;;5046714;23;19925;-83
2023/05/13 12:06:08;;;;;;;;;;;21.00;49.40;;;;;;5032562;28;19987;-82
2023/05/13 12:08:33;;;;;;;;;;;21.10;49.10;;;;;;5032007;28;19966;-82
2023/05/13 12:10:59;;;;;;;;;;;21.10;49.10;;;;;;5035564;28;20095;-82
2023/05/13 12:13:24;;;;;;;;;;;21.10;47.50;;;;;;5025951;28;19917;-83
2023/05/13 12:15:50;;;;;;;;;;;21.10;47.60;;;;;;5026176;28;19914;-82
2023/05/13 12:18:16;;;;;;;;;;;21.30;48.30;;;;;;5020998;28;19913;-82
2023/05/13 12:20:41;;;;;;;;;;;21.10;51.50;;;;;;5025600;28;19914;-82
2023/05/13 12:23:10;;;;;;;;;;;21.10;52.30;;;;;;5022643;28;19928;-82
2023/05/13 12:25:43;;;;;;;;;;;21.30;47.30;;;;;;5028927;28;19917;-81
2023/05/13 12:28:10;;;;;;;;;;;21.30;45.70;;;;;;5024030;28;20020;-82
2023/05/13 12:30:40;;;;;;;;;;;21.20;47.80;;;;;;5033561;28;19913;-82
2023/05/13 12:33:12;;;;;;;;;;;21.40;46.90;;;;;;5030833;28;19944;-82
2023/05/13 12:35:38;;;;;;;;;;;21.50;46.90;;;;;;5017512;28;20278;-82
2023/05/13 12:38:04;;;;;;;;;;;21.50;43.50;;;;;;5013702;28;19929;-84
2023/05/13 12:40:30;;;;;;;;;;;21.50;46.30;;;;;;5015424;28;19924;-83
2023/05/13 12:42:59;;;;;;;;;;;21.30;46.50;;;;;;5015194;28;19924;-84
2023/05/13 12:45:26;;;;;;;;;;;21.20;47.10;;;;;;5028516;28;19925;-83
2023/05/13 12:47:51;;;;;;;;;;;21.20;46.40;;;;;;5023757;28;19921;-84
2023/05/13 12:50:18;;;;;;;;;;;21.10;47.90;;;;;;5024889;28;20299;-83
2023/05/13 12:52:43;;;;;;;;;;;21.10;49.60;;;;;;5018836;28;19913;-84
2023/05/13 12:55:08;;;;;;;;;;;21.30;45.50;;;;;;5017141;28;19954;-83
2023/05/13 12:57:34;;;;;;;;;;;21.40;45.10;;;;;;5023772;28;20291;-84
2023/05/13 12:59:59;;;;;;;;;;;21.30;45.50;;;;;;5024132;28;19918;-84
2023/05/13 13:02:25;;;;;;;;;;;21.20;46.10;;;;;;5022722;28;20382;-84
2023/05/13 13:04:51;;;;;;;;;;;21.10;50.20;;;;;;5016582;28;19921;-83
2023/05/13 13:07:16;;;;;;;;;;;21.10;50.80;;;;;;5021915;28;20563;-83
2023/05/13 13:09:42;;;;;;;;;;;21.20;48.50;;;;;;5018773;28;19921;-83
2023/05/13 13:12:07;;;;;;;;;;;21.10;47.30;;;;;;5032618;28;19921;-83
2023/05/13 13:14:33;;;;;;;;;;;21.10;49.90;;;;;;5023766;28;20000;-83
2023/05/13 13:16:58;;;;;;;;;;;20.90;50.40;;;;;;5031742;28;20305;-83
2023/05/13 13:19:24;;;;;;;;;;;20.80;51.70;;;;;;5029526;28;19921;-84
2023/05/13 13:21:49;;;;;;;;;;;20.80;50.80;;;;;;5029817;28;19949;-84
2023/05/13 13:24:15;;;;;;;;;;;20.70;50.00;;;;;;5027005;28;19964;-83
2023/05/13 13:26:40;;;;;;;;;;;20.80;49.60;;;;;;5026219;28;19913;-84
2023/05/13 13:29:05;;;;;;;;;;;20.80;52.30;;;;;;5026782;28;19945;-83
2023/05/13 13:31:31;;;;;;;;;;;20.80;52.00;;;;;;5023139;28;20322;-84
2023/05/13 13:34:02;;;;;;;;;;;21.10;50.40;;;;;;5026873;28;19917;-83
2023/05/13 13:36:28;;;;;;;;;;;21.40;49.80;;;;;;5023202;28;19924;-85
2023/05/13 13:38:54;;;;;;;;;;;21.80;46.80;;;;;;5025235;28;20266;-84
2023/05/13 13:41:24;;;;;;;;;;;22.00;49.20;;;;;;5022820;28;19943;-84
2023/05/13 13:43:49;;;;;;;;;;;22.10;49.40;;;;;;5024533;28;19921;-84
2023/05/13 13:46:15;;;;;;;;;;;22.10;48.70;;;;;;5030110;28;20457;-83
2023/05/13 13:48:40;;;;;;;;;;;21.90;46.20;;;;;;5029379;28;19974;-83
2023/05/13 13:51:06;;;;;;;;;;;21.80;45.60;;;;;;5033837;28;19913;-83
2023/05/13 13:53:31;;;;;;;;;;;21.50;45.50;;;;;;5033070;28;20449;-84
2023/05/13 13:55:57;;;;;;;;;;;21.20;45.50;;;;;;5041979;28;20322;-84
2023/05/13 13:58:22;;;;;;;;;;;21.00;46.50;;;;;;5028105;28;19991;-84
2023/05/13 14:00:48;;;;;;;;;;;20.80;48.30;;;;;;5024814;28;19917;-84
2023/05/13 14:03:13;;;;;;;;;;;20.90;47.00;;;;;;5025943;28;20383;-85
2023/05/13 14:05:38;;;;;;;;;;;20.70;49.00;;;;;;5029824;28;19940;-85
2023/05/13 14:08:04;;;;;;;;;;;20.90;49.90;;;;;;5023899;28;20394;-84
2023/05/13 14:10:30;;;;;;;;;;;20.90;50.10;;;;;;5021169;28;19918;-84
2023/05/13 14:12:55;;;;;;;;;;;20.50;48.70;;;;;;5033946;28;20286;-83
2023/05/13 14:15:20;;;;;;;;;;;20.20;48.70;;;;;;5019680;28;20005;-83